Zeran (malta) — 9HHJ5 — position and weather

sailwx.info

Track history (hours):
 
Tides and Currents Weather Stations Pressure Air Temp Water Temp Dewpoint Dewpoint Depression Visibility Wind Speed Wind Dir Waves Ship Positions

Zeran (malta)

Last reported at 2017-Mar-20 20:33 UTC. Time now 2017-Mar-23 10:36 UTC.
Position N 38°11' E 012°00'.

Length 148 m; beam 24 m.

Type: Ship (hazmat cat A). MMSI: 249846000.

Date/timePositionNaut miles runAvg speedWind from/ knotsBaromVisibWave heightAir tempDewpointWater temp
2017-Mar-20 20:33N 38°11' E 012°00'1312.0
2017-Mar-20 19:26N 38°18' E 012°15'1211.8
2017-Mar-20 18:26N 38°24' E 012°27'3511.8
2017-Mar-20 15:25N 38°47' E 013°02'285 7.1
2017-Mar-18 23:17N 42°57' E 009°60'912.2
2017-Mar-18 22:33N 43°06' E 009°59'1212.1
2017-Mar-18 21:33N 43°17' E 009°51'1212.0
2017-Mar-18 20:33N 43°27' E 009°42'1211.9
2017-Mar-18 19:33N 43°37' E 009°34'1111.3
2017-Mar-18 18:33N 43°47' E 009°26'1111.4
2017-Mar-18 17:33N 43°57' E 009°18'1111.5
2017-Mar-18 16:33N 44°06' E 009°09'1111.4
2017-Mar-18 15:33N 44°16' E 009°02'9 8.9
2017-Mar-18 14:33N 44°24' E 008°55'2 1.8
2017-Mar-18 13:31N 44°24' E 008°53'0 0.0
2017-Mar-18 12:25N 44°24' E 008°53'0 0.0
2017-Mar-18 11:25N 44°24' E 008°53'0 0.0
2017-Mar-18 10:25N 44°24' E 008°53'0 0.0
2017-Mar-18 09:28N 44°24' E 008°53'0 0.0
2017-Mar-18 08:28N 44°24' E 008°53'0 0.0
2017-Mar-18 07:28N 44°24' E 008°53'0 0.0
2017-Mar-18 06:31N 44°24' E 008°53'0 0.0
2017-Mar-18 05:31N 44°24' E 008°53'0 0.0
2017-Mar-18 04:31N 44°24' E 008°53'0 0.0
2017-Mar-18 03:31N 44°24' E 008°53'0 0.0
2017-Mar-18 02:31N 44°24' E 008°53'0 0.0
2017-Mar-18 01:31N 44°24' E 008°53'0 0.0
2017-Mar-18 00:31N 44°24' E 008°53'0 0.0
2017-Mar-17 23:10N 44°24' E 008°53'0 0.0
2017-Mar-17 22:28N 44°24' E 008°53'0 0.0
2017-Mar-17 21:28N 44°24' E 008°53'0 0.0
2017-Mar-17 20:25N 44°24' E 008°53'0 0.0
2017-Mar-17 19:31N 44°24' E 008°53'0 0.0
2017-Mar-17 18:31N 44°24' E 008°53'0 0.0
2017-Mar-17 17:28N 44°24' E 008°53'0 0.0
2017-Mar-17 16:31N 44°24' E 008°53'0 0.0
2017-Mar-17 15:31N 44°24' E 008°53'4 4.2
2017-Mar-17 14:33N 44°22' E 008°57'1212.2
2017-Mar-17 13:33N 44°11' E 009°04'1313.1
2017-Mar-17 12:33N 43°59' E 009°10'1313.0
2017-Mar-17 11:33N 43°47' E 009°17'1312.9
2017-Mar-17 10:33N 43°35' E 009°23'1312.8
2017-Mar-17 09:33N 43°22' E 009°28'1212.2
2017-Mar-17 08:33N 43°11' E 009°34'1312.5
2017-Mar-17 07:33N 42°59' E 009°40'5512.8
2017-Mar-17 03:17N 42°05' E 009°47'10912.4
2017-Mar-16 18:33N 40°16' E 009°56'  
2017-Mar-13 15:23N 38°19' E 012°21'2312.1
2017-Mar-13 13:28N 38°35' E 012°43'1111.8
2017-Mar-13 12:29N 38°42' E 012°54'4811.8
2017-Mar-13 08:28N 39°20' E 013°31'1312.2
2017-Mar-13 07:23N 39°31' E 013°41'1012.2
2017-Mar-13 06:32N 39°39' E 013°49'254 7.9
2017-Mar-11 22:22N 42°46' E 010°00'1112.7
2017-Mar-11 21:32N 42°57' E 009°60'1212.7
2017-Mar-11 20:33N 43°09' E 009°58'1312.9
2017-Mar-11 19:33N 43°20' E 009°48'1312.7
2017-Mar-11 18:33N 43°31' E 009°39'1312.7
2017-Mar-11 17:33N 43°42' E 009°30'1312.6
2017-Mar-11 16:33N 43°52' E 009°21'1212.4
2017-Mar-11 15:33N 44°03' E 009°11'1312.6
2017-Mar-11 14:33N 44°13' E 009°01'1211.9
2017-Mar-11 13:33N 44°24' E 008°53'1 1.0
2017-Mar-11 12:33N 44°24' E 008°53'0 0.0
2017-Mar-11 11:27N 44°24' E 008°53'0 0.0
2017-Mar-11 10:33N 44°24' E 008°53'0 0.0
2017-Mar-11 09:33N 44°24' E 008°53'0 0.0
2017-Mar-11 08:33N 44°24' E 008°53'0 0.0
2017-Mar-11 07:33N 44°24' E 008°53'0 0.0
2017-Mar-11 06:33N 44°24' E 008°53'0 0.0
2017-Mar-11 05:33N 44°24' E 008°53'0 0.0
2017-Mar-11 04:33N 44°24' E 008°53'0 0.0
2017-Mar-11 03:33N 44°24' E 008°53'0 0.0
2017-Mar-11 02:33N 44°24' E 008°53'0 0.0
2017-Mar-11 01:33N 44°24' E 008°53'0 0.0
2017-Mar-11 00:33N 44°24' E 008°53'0 0.0
2017-Mar-10 23:33N 44°24' E 008°53'0 0.0
2017-Mar-10 22:30N 44°24' E 008°53'0 0.0
2017-Mar-10 21:33N 44°24' E 008°53'  
Track history (hours):
 
Tides and Currents Weather Stations Pressure Air Temp Water Temp Dewpoint Dewpoint Depression Visibility Wind Speed Wind Dir Waves Ship Positions

Zeran (malta)

Last reported at 2017-Mar-20 20:33 UTC. Time now 2017-Mar-23 10:36 UTC.
Position N 38°11' E 012°00'.

Length 148 m; beam 24 m.

Type: Ship (hazmat cat A). MMSI: 249846000.

Date/timePositionNaut miles runAvg speedWind from/ knotsBaromVisibWave heightAir tempDewpointWater temp
2017-Mar-20 20:33N 38°11' E 012°00'1312.0
2017-Mar-20 19:26N 38°18' E 012°15'1211.8
2017-Mar-20 18:26N 38°24' E 012°27'3511.8
2017-Mar-20 15:25N 38°47' E 013°02'285 7.1
2017-Mar-18 23:17N 42°57' E 009°60'912.2
2017-Mar-18 22:33N 43°06' E 009°59'1212.1
2017-Mar-18 21:33N 43°17' E 009°51'1212.0
2017-Mar-18 20:33N 43°27' E 009°42'1211.9
2017-Mar-18 19:33N 43°37' E 009°34'1111.3
2017-Mar-18 18:33N 43°47' E 009°26'1111.4
2017-Mar-18 17:33N 43°57' E 009°18'1111.5
2017-Mar-18 16:33N 44°06' E 009°09'1111.4
2017-Mar-18 15:33N 44°16' E 009°02'9 8.9
2017-Mar-18 14:33N 44°24' E 008°55'2 1.8
2017-Mar-18 13:31N 44°24' E 008°53'0 0.0
2017-Mar-18 12:25N 44°24' E 008°53'0 0.0
2017-Mar-18 11:25N 44°24' E 008°53'0 0.0
2017-Mar-18 10:25N 44°24' E 008°53'0 0.0
2017-Mar-18 09:28N 44°24' E 008°53'0 0.0
2017-Mar-18 08:28N 44°24' E 008°53'0 0.0
2017-Mar-18 07:28N 44°24' E 008°53'0 0.0
2017-Mar-18 06:31N 44°24' E 008°53'0 0.0
2017-Mar-18 05:31N 44°24' E 008°53'0 0.0
2017-Mar-18 04:31N 44°24' E 008°53'0 0.0
2017-Mar-18 03:31N 44°24' E 008°53'0 0.0
2017-Mar-18 02:31N 44°24' E 008°53'0 0.0
2017-Mar-18 01:31N 44°24' E 008°53'0 0.0
2017-Mar-18 00:31N 44°24' E 008°53'0 0.0
2017-Mar-17 23:10N 44°24' E 008°53'0 0.0
2017-Mar-17 22:28N 44°24' E 008°53'0 0.0
2017-Mar-17 21:28N 44°24' E 008°53'0 0.0
2017-Mar-17 20:25N 44°24' E 008°53'0 0.0
2017-Mar-17 19:31N 44°24' E 008°53'0 0.0
2017-Mar-17 18:31N 44°24' E 008°53'0 0.0
2017-Mar-17 17:28N 44°24' E 008°53'0 0.0
2017-Mar-17 16:31N 44°24' E 008°53'0 0.0
2017-Mar-17 15:31N 44°24' E 008°53'4 4.2
2017-Mar-17 14:33N 44°22' E 008°57'1212.2
2017-Mar-17 13:33N 44°11' E 009°04'1313.1
2017-Mar-17 12:33N 43°59' E 009°10'1313.0
2017-Mar-17 11:33N 43°47' E 009°17'1312.9
2017-Mar-17 10:33N 43°35' E 009°23'1312.8
2017-Mar-17 09:33N 43°22' E 009°28'1212.2
2017-Mar-17 08:33N 43°11' E 009°34'1312.5
2017-Mar-17 07:33N 42°59' E 009°40'5512.8
2017-Mar-17 03:17N 42°05' E 009°47'10912.4
2017-Mar-16 18:33N 40°16' E 009°56'  
2017-Mar-13 15:23N 38°19' E 012°21'2312.1
2017-Mar-13 13:28N 38°35' E 012°43'1111.8
2017-Mar-13 12:29N 38°42' E 012°54'4811.8
2017-Mar-13 08:28N 39°20' E 013°31'1312.2
2017-Mar-13 07:23N 39°31' E 013°41'1012.2
2017-Mar-13 06:32N 39°39' E 013°49'254 7.9
2017-Mar-11 22:22N 42°46' E 010°00'1112.7
2017-Mar-11 21:32N 42°57' E 009°60'1212.7
2017-Mar-11 20:33N 43°09' E 009°58'1312.9
2017-Mar-11 19:33N 43°20' E 009°48'1312.7
2017-Mar-11 18:33N 43°31' E 009°39'1312.7
2017-Mar-11 17:33N 43°42' E 009°30'1312.6
2017-Mar-11 16:33N 43°52' E 009°21'1212.4
2017-Mar-11 15:33N 44°03' E 009°11'1312.6
2017-Mar-11 14:33N 44°13' E 009°01'1211.9
2017-Mar-11 13:33N 44°24' E 008°53'1 1.0
2017-Mar-11 12:33N 44°24' E 008°53'0 0.0
2017-Mar-11 11:27N 44°24' E 008°53'0 0.0
2017-Mar-11 10:33N 44°24' E 008°53'0 0.0
2017-Mar-11 09:33N 44°24' E 008°53'0 0.0
2017-Mar-11 08:33N 44°24' E 008°53'0 0.0
2017-Mar-11 07:33N 44°24' E 008°53'0 0.0
2017-Mar-11 06:33N 44°24' E 008°53'0 0.0
2017-Mar-11 05:33N 44°24' E 008°53'0 0.0
2017-Mar-11 04:33N 44°24' E 008°53'0 0.0
2017-Mar-11 03:33N 44°24' E 008°53'0 0.0
2017-Mar-11 02:33N 44°24' E 008°53'0 0.0
2017-Mar-11 01:33N 44°24' E 008°53'0 0.0
2017-Mar-11 00:33N 44°24' E 008°53'0 0.0
2017-Mar-10 23:33N 44°24' E 008°53'0 0.0
2017-Mar-10 22:30N 44°24' E 008°53'0 0.0
2017-Mar-10 21:33N 44°24' E 008°53'  

Dump ship's entire track history